Time;durP1;ratioP1;P1;durP2;ratioP2;P2;SDS_P1;SDS_P2;PMS_P1;PMS_P2;Temp;Humidity;BMP_temperature;BMP_pressure;BME280_temperature;BME280_humidity;BME280_pressure;Samples;Min_cycle;Max_cycle;Signal;HPM_P1;HPM_P2
2022/11/09 00:02:07;;;;;;;4.20;2.30;;;12.50;99.90;;;;;;4311317;28;10000420;-71
2022/11/09 00:04:32;;;;;;;5.07;2.20;;;12.50;99.90;;;;;;5011515;28;20041;-70
2022/11/09 00:07:00;;;;;;;5.22;2.30;;;12.50;99.90;;;;;;5019742;28;20033;-70
2022/11/09 00:09:26;;;;;;;7.15;2.53;;;12.40;99.90;;;;;;5004542;28;20753;-70
2022/11/09 00:11:53;;;;;;;4.38;2.35;;;12.40;99.90;;;;;;5003252;28;21639;-71
2022/11/09 00:14:18;;;;;;;5.35;2.55;;;12.40;99.90;;;;;;5007627;28;20085;-71
2022/11/09 00:16:44;;;;;;;3.85;2.65;;;12.40;99.90;;;;;;5010010;28;20037;-70
2022/11/09 00:19:11;;;;;;;4.63;3.05;;;12.40;99.90;;;;;;5013563;28;20155;-70
2022/11/09 00:21:37;;;;;;;8.52;3.08;;;12.40;99.90;;;;;;5014127;28;20432;-71
2022/11/09 00:24:03;;;;;;;7.32;3.08;;;12.30;99.90;;;;;;5007231;28;20025;-70
2022/11/09 00:26:29;;;;;;;4.35;2.03;;;12.30;99.90;;;;;;5014407;28;20017;-70
2022/11/09 00:28:55;;;;;;;7.05;2.40;;;12.30;99.90;;;;;;5011102;28;20041;-70
2022/11/09 00:31:22;;;;;;;3.03;2.03;;;12.20;99.90;;;;;;5014748;28;20057;-70
2022/11/09 00:33:49;;;;;;;3.70;1.95;;;12.20;99.90;;;;;;5011460;28;20025;-70
2022/11/09 00:36:15;;;;;;;5.68;2.38;;;12.10;99.90;;;;;;5011756;28;20455;-70
2022/11/09 00:38:41;;;;;;;4.95;2.08;;;12.10;99.90;;;;;;5010239;28;20025;-71
2022/11/09 00:41:09;;;;;;;7.18;2.25;;;12.00;99.90;;;;;;5010100;28;21216;-71
2022/11/09 00:43:35;;;;;;;5.50;2.58;;;12.00;99.90;;;;;;5007174;28;20063;-71
2022/11/09 00:46:01;;;;;;;3.60;2.30;;;12.00;99.90;;;;;;5006008;28;20029;-70
2022/11/09 00:48:27;;;;;;;6.28;2.80;;;11.90;99.90;;;;;;5011732;28;20030;-70
2022/11/09 00:50:55;;;;;;;3.70;2.33;;;11.90;99.90;;;;;;5009395;28;20037;-71
2022/11/09 00:53:21;;;;;;;4.05;2.10;;;11.90;99.90;;;;;;5013186;28;20829;-71
2022/11/09 00:56:01;;;;;;;5.68;2.08;;;11.80;99.90;;;;;;5011026;28;20083;-70
2022/11/09 00:58:29;;;;;;;5.72;2.40;;;11.80;99.90;;;;;;5006471;28;20029;-71
2022/11/09 01:00:56;;;;;;;4.85;2.40;;;11.80;99.90;;;;;;5013088;28;20028;-70
2022/11/09 01:03:23;;;;;;;4.55;2.47;;;11.70;99.90;;;;;;5014884;28;20030;-71
2022/11/09 01:05:49;;;;;;;5.00;2.72;;;11.80;99.90;;;;;;5010674;28;20025;-71
2022/11/09 01:08:15;;;;;;;6.63;3.00;;;11.80;99.90;;;;;;5010488;28;20569;-71
2022/11/09 01:10:42;;;;;;;9.65;3.42;;;11.80;99.90;;;;;;5010495;28;20042;-70
2022/11/09 01:13:09;;;;;;;5.85;2.85;;;11.70;99.90;;;;;;5014867;28;20057;-71
2022/11/09 01:15:42;;;;;;;9.75;2.83;;;11.70;99.90;;;;;;5012795;28;20029;-71
2022/11/09 01:18:09;;;;;;;5.38;2.70;;;11.80;99.90;;;;;;5011235;28;20489;-71
2022/11/09 01:20:41;;;;;;;7.43;2.50;;;11.80;99.90;;;;;;5014674;28;20115;-70
2022/11/09 01:23:08;;;;;;;4.28;2.42;;;11.80;99.90;;;;;;5010239;28;20111;-71
2022/11/09 01:25:34;;;;;;;5.57;2.88;;;11.80;99.90;;;;;;5007252;28;20394;-70
2022/11/09 01:28:00;;;;;;;5.05;2.88;;;11.80;99.90;;;;;;5005723;28;20036;-70
2022/11/09 01:30:26;;;;;;;10.60;2.83;;;11.80;99.90;;;;;;5007017;28;20045;-70
2022/11/09 01:32:52;;;;;;;4.28;2.70;;;11.80;99.90;;;;;;5005230;28;20267;-70
2022/11/09 01:35:18;;;;;;;5.57;2.85;;;11.90;99.90;;;;;;5008817;28;20026;-70
2022/11/09 01:37:43;;;;;;;3.85;2.85;;;11.90;99.90;;;;;;5011827;28;20033;-70
2022/11/09 01:40:10;;;;;;;4.70;3.10;;;11.90;99.90;;;;;;5011650;28;20303;-70
2022/11/09 01:42:37;;;;;;;8.18;2.72;;;12.00;99.90;;;;;;5013029;28;20036;-70
2022/11/09 01:45:17;;;;;;;9.35;2.90;;;11.90;99.90;;;;;;5008662;28;20034;-70
2022/11/09 01:47:49;;;;;;;7.57;3.08;;;11.90;99.90;;;;;;5003388;28;20064;-70
2022/11/09 01:50:27;;;;;;;4.40;2.88;;;11.90;99.90;;;;;;5007567;28;20080;-70
2022/11/09 01:52:53;;;;;;;5.90;3.00;;;11.90;99.90;;;;;;5012846;28;20146;-71
2022/11/09 01:55:22;;;;;;;5.93;3.33;;;11.90;99.90;;;;;;5008189;28;20560;-71
2022/11/09 01:57:59;;;;;;;6.10;3.05;;;11.80;99.90;;;;;;5010919;28;20037;-70
2022/11/09 02:00:25;;;;;;;6.13;3.40;;;11.80;99.90;;;;;;5010311;28;20021;-71
2022/11/09 02:03:03;;;;;;;6.60;3.00;;;11.70;99.90;;;;;;5010146;28;20022;-71
2022/11/09 02:05:33;;;;;;;6.47;3.30;;;11.70;99.90;;;;;;5003836;28;20038;-71
2022/11/09 02:08:01;;;;;;;5.88;3.10;;;11.60;99.90;;;;;;5000869;28;20532;-71
2022/11/09 02:10:43;;;;;;;6.60;3.03;;;11.60;99.90;;;;;;5011067;28;20068;-71
2022/11/09 02:13:14;;;;;;;5.72;3.20;;;11.60;99.90;;;;;;5007241;28;20029;-71
2022/11/09 02:15:40;;;;;;;5.28;3.33;;;11.60;99.90;;;;;;5007313;28;20229;-71
2022/11/09 02:18:07;;;;;;;5.90;3.33;;;11.50;99.90;;;;;;5007967;28;20029;-71
2022/11/09 02:20:53;;;;;;;6.45;3.85;;;11.50;99.90;;;;;;5009440;28;20080;-71
2022/11/09 02:23:19;;;;;;;5.95;3.95;;;11.50;99.90;;;;;;5004018;28;20033;-71
2022/11/09 02:25:51;;;;;;;7.20;3.35;;;11.50;99.90;;;;;;5010815;28;20010;-71
2022/11/09 02:28:18;;;;;;;8.38;4.10;;;11.50;99.90;;;;;;5009908;28;20391;-71
2022/11/09 02:30:47;;;;;;;7.88;4.38;;;11.50;99.90;;;;;;5011795;28;20080;-70
2022/11/09 02:33:13;;;;;;;8.80;3.80;;;11.50;99.90;;;;;;5009899;28;20676;-70
2022/11/09 02:35:39;;;;;;;7.72;4.38;;;11.50;99.90;;;;;;5006291;28;20112;-71
2022/11/09 02:38:09;;;;;;;11.50;4.70;;;11.50;99.90;;;;;;5019511;28;20389;-71
2022/11/09 02:40:37;;;;;;;8.23;4.32;;;11.50;99.90;;;;;;5013204;28;20120;-71
2022/11/09 02:43:06;;;;;;;7.60;4.68;;;11.50;99.90;;;;;;5014695;28;20472;-71
2022/11/09 02:45:32;;;;;;;6.82;4.45;;;11.50;99.90;;;;;;5002914;28;20555;-71
2022/11/09 02:47:57;;;;;;;7.30;4.63;;;11.40;99.90;;;;;;5015375;28;20037;-71
2022/11/09 02:50:23;;;;;;;5.97;4.60;;;11.40;99.90;;;;;;5009719;28;20068;-70
2022/11/09 02:52:48;;;;;;;6.65;4.38;;;11.40;99.90;;;;;;5006523;28;20064;-70
2022/11/09 02:55:14;;;;;;;10.13;4.55;;;11.40;99.90;;;;;;5002587;28;20467;-71
2022/11/09 02:57:40;;;;;;;6.53;4.50;;;11.40;99.90;;;;;;5005468;28;20048;-70
2022/11/09 03:00:06;;;;;;;7.45;5.00;;;11.40;99.90;;;;;;4997391;28;20041;-71
2022/11/09 03:02:32;;;;;;;9.02;4.88;;;11.40;99.90;;;;;;5006648;28;20044;-71
2022/11/09 03:04:58;;;;;;;10.05;5.63;;;11.40;99.90;;;;;;5010642;28;20498;-71
2022/11/09 03:07:23;;;;;;;11.43;6.80;;;11.50;99.90;;;;;;5008321;28;20273;-71
2022/11/09 03:09:49;;;;;;;11.65;7.28;;;11.50;99.90;;;;;;5003491;28;20029;-71
2022/11/09 03:12:30;;;;;;;15.48;8.63;;;11.40;99.90;;;;;;5007042;28;20358;-71
2022/11/09 03:15:00;;;;;;;12.32;7.90;;;11.50;99.90;;;;;;5007121;28;20038;-71
2022/11/09 03:17:26;;;;;;;12.32;6.25;;;11.40;99.90;;;;;;5010659;28;20456;-71
2022/11/09 03:19:52;;;;;;;10.82;7.15;;;11.50;99.90;;;;;;5014227;28;20108;-71
2022/11/09 03:22:18;;;;;;;10.30;6.43;;;11.50;99.90;;;;;;5015879;28;20033;-71
2022/11/09 03:24:44;;;;;;;10.52;5.07;;;11.40;99.90;;;;;;5014749;28;20619;-71
2022/11/09 03:27:10;;;;;;;10.00;5.70;;;11.50;99.90;;;;;;5007218;28;20025;-71
2022/11/09 03:29:35;;;;;;;8.63;6.07;;;11.40;99.90;;;;;;5010478;28;20513;-71
2022/11/09 03:32:01;;;;;;;6.35;5.53;;;11.50;99.90;;;;;;5008687;28;20022;-71
2022/11/09 03:34:27;;;;;;;9.00;6.03;;;11.50;99.90;;;;;;5007288;28;20025;-71
2022/11/09 03:36:53;;;;;;;9.95;5.82;;;11.50;99.90;;;;;;5004906;28;20358;-71
2022/11/09 03:39:18;;;;;;;8.50;5.50;;;11.50;99.90;;;;;;5011173;28;20041;-71
2022/11/09 03:41:44;;;;;;;6.55;5.28;;;11.50;99.90;;;;;;5013020;28;20040;-71
2022/11/09 03:44:09;;;;;;;7.72;5.05;;;11.50;99.90;;;;;;5011649;28;20040;-71
2022/11/09 03:46:35;;;;;;;8.02;5.20;;;11.40;99.90;;;;;;5011887;28;20030;-71
2022/11/09 03:49:01;;;;;;;6.65;4.80;;;11.50;99.90;;;;;;5015849;28;20034;-71
2022/11/09 03:51:26;;;;;;;9.88;4.75;;;11.50;99.90;;;;;;5007722;28;21272;-71
2022/11/09 03:53:52;;;;;;;8.45;5.00;;;11.50;99.90;;;;;;5003078;28;20033;-71
2022/11/09 03:56:18;;;;;;;7.63;4.55;;;11.50;99.90;;;;;;5009861;28;20048;-71
2022/11/09 03:58:44;;;;;;;9.40;4.68;;;11.60;99.90;;;;;;5013553;28;20631;-71
2022/11/09 04:01:09;;;;;;;7.90;4.63;;;11.50;99.90;;;;;;5011372;28;20041;-71
2022/11/09 04:03:36;;;;;;;7.10;4.60;;;11.60;99.90;;;;;;5011601;28;20029;-71
2022/11/09 04:06:01;;;;;;;6.20;4.82;;;11.60;99.90;;;;;;5015129;28;20103;-71
2022/11/09 04:08:27;;;;;;;5.97;4.78;;;11.60;99.90;;;;;;5010341;28;20029;-71
2022/11/09 04:10:53;;;;;;;6.60;4.18;;;11.60;99.90;;;;;;5008181;28;20041;-71
2022/11/09 04:13:18;;;;;;;6.80;4.55;;;11.60;99.90;;;;;;5013581;28;20033;-71
2022/11/09 04:15:44;;;;;;;7.10;4.28;;;11.60;99.90;;;;;;5010439;28;20052;-71
2022/11/09 04:18:15;;;;;;;6.47;3.63;;;11.70;99.90;;;;;;5004012;28;20061;-71
2022/11/09 04:20:41;;;;;;;8.57;4.40;;;11.60;99.90;;;;;;5012696;28;20030;-71
2022/11/09 04:23:11;;;;;;;7.55;4.43;;;11.60;99.90;;;;;;5009031;28;20397;-71
2022/11/09 04:25:38;;;;;;;8.32;4.05;;;11.60;99.90;;;;;;5013754;28;20034;-70
2022/11/09 04:28:06;;;;;;;8.90;4.78;;;11.60;99.90;;;;;;5013227;28;20536;-71
2022/11/09 04:30:34;;;;;;;6.15;4.25;;;11.60;99.90;;;;;;5014115;28;20061;-71
2022/11/09 04:33:01;;;;;;;6.53;4.40;;;11.60;99.90;;;;;;5011037;28;20037;-71
2022/11/09 04:35:28;;;;;;;7.05;4.85;;;11.60;99.90;;;;;;5015729;28;20503;-71
2022/11/09 04:37:55;;;;;;;5.80;3.70;;;11.60;99.90;;;;;;5015659;28;20029;-71
2022/11/09 04:40:21;;;;;;;5.97;4.25;;;11.60;99.90;;;;;;5007467;28;20026;-71
2022/11/09 04:42:47;;;;;;;5.03;4.40;;;11.50;99.90;;;;;;5012075;28;20036;-71
2022/11/09 04:45:13;;;;;;;6.15;4.57;;;11.50;99.90;;;;;;5012439;28;20014;-71
2022/11/09 04:47:38;;;;;;;6.90;4.43;;;11.50;99.90;;;;;;5008797;28;20030;-71
2022/11/09 04:50:04;;;;;;;6.32;4.45;;;11.60;99.90;;;;;;5010584;28;20499;-71
2022/11/09 04:52:31;;;;;;;5.22;4.00;;;11.50;99.90;;;;;;5007215;28;20034;-71
2022/11/09 04:54:56;;;;;;;6.25;4.22;;;11.60;99.90;;;;;;5007259;28;20063;-71
2022/11/09 04:57:22;;;;;;;5.63;3.90;;;11.60;99.90;;;;;;5012123;28;21053;-71
2022/11/09 04:59:48;;;;;;;6.28;4.28;;;11.60;99.90;;;;;;5019400;28;20021;-71
2022/11/09 05:02:13;;;;;;;5.63;3.80;;;11.60;99.90;;;;;;5008402;28;20113;-71
2022/11/09 05:04:39;;;;;;;4.80;3.63;;;11.60;99.90;;;;;;5013119;28;20150;-71
2022/11/09 05:07:04;;;;;;;5.75;4.60;;;11.60;99.90;;;;;;5011723;28;20049;-71
2022/11/09 05:09:30;;;;;;;5.80;4.03;;;11.70;99.90;;;;;;5011143;28;20078;-71
2022/11/09 05:11:56;;;;;;;6.70;3.90;;;11.70;99.90;;;;;;5012946;28;20025;-71
2022/11/09 05:14:21;;;;;;;4.65;4.00;;;11.70;99.90;;;;;;5011020;28;20118;-71
2022/11/09 05:16:47;;;;;;;7.15;3.95;;;11.70;99.90;;;;;;5007561;28;20030;-71
2022/11/09 05:19:12;;;;;;;5.60;4.00;;;11.80;99.90;;;;;;5008031;28;20025;-71
2022/11/09 05:21:38;;;;;;;5.32;4.10;;;11.80;99.90;;;;;;5018850;28;20469;-71
2022/11/09 05:24:04;;;;;;;5.30;4.10;;;11.80;99.90;;;;;;5018916;28;20685;-71
2022/11/09 05:26:34;;;;;;;5.20;3.97;;;11.80;99.90;;;;;;5013107;28;20029;-71
2022/11/09 05:29:02;;;;;;;6.43;4.05;;;11.80;99.90;;;;;;5010182;28;20033;-71
2022/11/09 05:31:28;;;;;;;6.22;3.95;;;11.90;99.90;;;;;;5015673;28;20478;-71
2022/11/09 05:33:54;;;;;;;6.07;3.90;;;11.80;99.90;;;;;;5017897;28;20029;-71
2022/11/09 05:36:20;;;;;;;5.00;3.88;;;11.80;99.90;;;;;;5009233;28;20485;-71
2022/11/09 05:38:47;;;;;;;7.75;4.20;;;11.80;99.90;;;;;;5010828;28;20029;-71
2022/11/09 05:41:12;;;;;;;6.63;3.65;;;11.90;99.90;;;;;;5008101;28;20022;-71
2022/11/09 05:43:38;;;;;;;4.78;3.70;;;11.90;99.90;;;;;;5011175;28;20029;-71
2022/11/09 05:46:04;;;;;;;4.45;3.30;;;11.90;99.90;;;;;;5019436;28;20033;-71
2022/11/09 05:48:29;;;;;;;4.60;3.03;;;11.90;99.90;;;;;;5008640;28;20033;-71
2022/11/09 05:50:58;;;;;;;5.03;3.25;;;11.90;99.90;;;;;;5006421;28;20398;-71
2022/11/09 05:53:24;;;;;;;5.15;3.40;;;12.00;99.90;;;;;;5011040;28;20030;-71
2022/11/09 05:55:50;;;;;;;5.88;3.13;;;11.90;99.90;;;;;;5010510;28;20041;-71
2022/11/09 05:58:15;;;;;;;4.90;3.20;;;11.90;99.90;;;;;;5013612;28;20075;-71
2022/11/09 06:00:41;;;;;;;3.50;3.15;;;12.00;99.90;;;;;;5006629;28;20033;-71
2022/11/09 06:03:09;;;;;;;4.90;3.15;;;12.00;99.90;;;;;;5010930;28;20041;-71
2022/11/09 06:05:37;;;;;;;3.65;3.17;;;12.00;99.90;;;;;;5013908;28;20032;-71
2022/11/09 06:08:12;;;;;;;3.40;3.10;;;12.00;99.90;;;;;;5007761;28;20037;-71
2022/11/09 06:10:38;;;;;;;4.45;2.95;;;12.00;99.90;;;;;;5011316;28;20032;-71
2022/11/09 06:13:04;;;;;;;4.00;3.60;;;12.00;99.90;;;;;;5010679;28;20040;-71
2022/11/09 06:15:29;;;;;;;4.43;2.70;;;12.00;99.90;;;;;;5005200;28;20033;-71
2022/11/09 06:17:57;;;;;;;3.15;2.63;;;12.00;99.90;;;;;;5005360;28;20065;-71
2022/11/09 06:20:23;;;;;;;3.38;3.08;;;12.00;99.90;;;;;;5009370;28;20485;-71
2022/11/09 06:23:00;;;;;;;4.63;2.63;;;12.10;99.90;;;;;;5010660;28;20129;-71
2022/11/09 06:25:26;;;;;;;4.32;2.45;;;12.00;99.90;;;;;;5017365;28;20535;-71
2022/11/09 06:27:56;;;;;;;3.55;2.30;;;12.00;99.90;;;;;;5012334;28;20033;-71
2022/11/09 06:30:21;;;;;;;3.95;2.50;;;12.00;99.90;;;;;;5010251;28;20046;-71
2022/11/09 06:32:47;;;;;;;3.75;2.25;;;12.00;99.90;;;;;;5009863;28;20037;-71
2022/11/09 06:35:14;;;;;;;3.67;2.30;;;12.00;99.90;;;;;;5003325;28;20026;-71
2022/11/09 06:37:39;;;;;;;3.05;2.20;;;12.00;99.90;;;;;;5014419;28;20025;-71
2022/11/09 06:40:06;;;;;;;3.30;2.15;;;12.00;99.90;;;;;;5008038;28;20088;-70
2022/11/09 06:42:31;;;;;;;1.98;1.83;;;12.00;99.90;;;;;;5003064;28;20033;-71
2022/11/09 06:44:57;;;;;;;2.03;1.83;;;12.00;99.90;;;;;;5008154;28;20036;-71
2022/11/09 06:47:23;;;;;;;1.77;1.67;;;12.00;99.90;;;;;;5010565;28;20398;-71
2022/11/09 06:49:48;;;;;;;1.80;1.70;;;12.00;99.90;;;;;;5013969;28;20037;-71
2022/11/09 06:52:14;;;;;;;2.67;1.67;;;11.90;99.90;;;;;;5020623;28;20349;-71
2022/11/09 06:54:39;;;;;;;5.72;1.98;;;12.00;99.90;;;;;;5006860;28;20033;-71
2022/11/09 06:57:06;;;;;;;3.33;1.70;;;12.00;99.90;;;;;;5009436;28;20026;-71
2022/11/09 06:59:31;;;;;;;2.40;1.50;;;11.90;99.90;;;;;;5012268;28;20028;-71
2022/11/09 07:01:57;;;;;;;3.50;1.40;;;11.90;99.90;;;;;;5012835;28;20033;-71
2022/11/09 07:04:22;;;;;;;1.50;1.35;;;12.00;99.90;;;;;;5012181;28;20053;-71
2022/11/09 07:06:48;;;;;;;1.88;1.50;;;12.00;99.90;;;;;;5008110;28;20157;-71
2022/11/09 07:09:14;;;;;;;6.32;1.80;;;12.00;99.90;;;;;;5009229;28;20075;-71
2022/11/09 07:11:39;;;;;;;2.72;1.48;;;12.10;99.90;;;;;;5004499;28;20032;-71
2022/11/09 07:14:05;;;;;;;1.48;1.38;;;12.10;99.90;;;;;;5020346;28;20354;-71
2022/11/09 07:16:31;;;;;;;2.25;1.55;;;12.10;99.90;;;;;;5018648;28;20034;-71
2022/11/09 07:18:57;;;;;;;3.85;1.73;;;12.10;99.90;;;;;;5016466;28;20481;-71
2022/11/09 07:21:23;;;;;;;3.58;2.63;;;12.10;99.90;;;;;;5023138;28;20026;-71
2022/11/09 07:23:48;;;;;;;3.45;2.60;;;12.20;99.90;;;;;;5011744;28;20393;-71
2022/11/09 07:26:15;;;;;;;2.75;2.33;;;12.20;99.90;;;;;;5018261;28;20018;-71
2022/11/09 07:28:41;;;;;;;2.40;1.90;;;12.20;99.90;;;;;;5021696;28;20156;-71
2022/11/09 07:31:08;;;;;;;3.08;2.30;;;12.30;99.90;;;;;;5012083;28;20049;-71
2022/11/09 07:33:33;;;;;;;2.05;1.70;;;12.30;99.90;;;;;;5017812;28;20096;-71
2022/11/09 07:36:00;;;;;;;2.92;1.58;;;12.40;99.90;;;;;;5018780;28;20505;-71
2022/11/09 07:38:28;;;;;;;1.70;1.60;;;12.40;99.90;;;;;;5017163;28;20040;-71
2022/11/09 07:40:56;;;;;;;2.42;2.03;;;12.40;99.90;;;;;;5024307;28;20048;-71
2022/11/09 07:43:22;;;;;;;3.35;1.50;;;12.40;99.90;;;;;;5013533;28;20026;-71
2022/11/09 07:45:48;;;;;;;1.70;1.27;;;12.40;99.90;;;;;;5016202;28;20032;-71
2022/11/09 07:48:13;;;;;;;1.25;0.98;;;12.40;99.90;;;;;;5016978;28;20747;-71
2022/11/09 07:50:40;;;;;;;2.08;1.10;;;12.40;99.90;;;;;;5014462;28;20485;-71
2022/11/09 07:53:06;;;;;;;2.47;1.30;;;12.40;99.90;;;;;;5020408;28;20033;-71
2022/11/09 07:55:33;;;;;;;1.38;1.20;;;12.40;99.90;;;;;;5009607;28;20242;-71
2022/11/09 07:58:02;;;;;;;1.83;1.20;;;12.40;99.90;;;;;;5008940;28;20034;-71
2022/11/09 08:00:29;;;;;;;1.58;1.20;;;12.40;99.90;;;;;;5014466;28;20029;-71
2022/11/09 08:02:56;;;;;;;1.45;0.82;;;12.40;99.90;;;;;;5017871;28;20029;-71
2022/11/09 08:05:22;;;;;;;2.17;1.20;;;12.50;99.90;;;;;;5011236;28;20034;-71
2022/11/09 08:07:52;;;;;;;1.40;1.20;;;12.50;99.90;;;;;;5019954;28;20029;-71
2022/11/09 08:10:18;;;;;;;2.13;1.08;;;12.50;99.90;;;;;;5017770;28;20104;-71
2022/11/09 08:12:44;;;;;;;4.28;1.33;;;12.50;99.90;;;;;;5014166;28;20434;-71
2022/11/09 08:15:10;;;;;;;1.13;1.00;;;12.50;99.90;;;;;;5004534;28;20385;-71
2022/11/09 08:17:35;;;;;;;2.88;1.60;;;12.50;99.90;;;;;;5014913;28;20330;-71
2022/11/09 08:20:01;;;;;;;2.25;1.17;;;12.50;99.90;;;;;;5015134;28;20516;-71
2022/11/09 08:22:27;;;;;;;2.28;1.20;;;12.60;99.90;;;;;;5013976;28;20112;-71
2022/11/09 08:24:52;;;;;;;1.75;1.27;;;12.50;99.90;;;;;;5014130;28;20021;-71
2022/11/09 08:27:18;;;;;;;1.95;1.30;;;12.60;99.90;;;;;;5015045;28;20544;-71
2022/11/09 08:29:44;;;;;;;1.73;1.40;;;12.60;99.90;;;;;;5021379;28;20049;-71
2022/11/09 08:32:09;;;;;;;2.13;1.40;;;12.60;99.90;;;;;;5014748;28;20096;-71
2022/11/09 08:34:35;;;;;;;1.75;1.27;;;12.60;99.90;;;;;;5008808;28;20117;-71
2022/11/09 08:37:01;;;;;;;2.70;1.40;;;12.60;99.90;;;;;;5005668;28;20026;-71
2022/11/09 08:39:26;;;;;;;2.38;1.50;;;12.60;99.90;;;;;;5005492;28;20065;-71
2022/11/09 08:41:52;;;;;;;3.63;1.73;;;12.60;99.90;;;;;;5001873;28;20661;-74
2022/11/09 08:44:18;;;;;;;2.55;2.08;;;12.60;99.90;;;;;;5000994;28;20045;-74
2022/11/09 08:46:43;;;;;;;3.28;2.60;;;12.60;99.90;;;;;;4992169;28;20076;-74
2022/11/09 08:49:09;;;;;;;2.55;2.13;;;12.60;99.90;;;;;;5005684;28;20029;-74
2022/11/09 08:51:34;;;;;;;4.38;1.92;;;12.60;99.90;;;;;;5003919;28;20040;-74
2022/11/09 08:54:00;;;;;;;3.65;2.17;;;12.70;99.90;;;;;;4997420;28;20036;-74
2022/11/09 08:56:26;;;;;;;2.20;1.80;;;12.60;99.90;;;;;;5002060;28;20037;-74
2022/11/09 08:58:51;;;;;;;2.88;1.98;;;12.70;99.90;;;;;;5005558;28;20079;-74
2022/11/09 09:01:17;;;;;;;3.15;1.90;;;12.70;99.90;;;;;;5004357;28;20092;-74
2022/11/09 09:03:43;;;;;;;3.50;1.90;;;12.70;99.90;;;;;;5011789;28;20030;-73
2022/11/09 09:06:08;;;;;;;4.80;2.10;;;12.80;99.90;;;;;;5003835;28;20057;-74
2022/11/09 09:08:34;;;;;;;2.88;2.10;;;12.80;99.90;;;;;;5000316;28;20034;-74
2022/11/09 09:11:04;;;;;;;4.10;2.33;;;12.80;99.90;;;;;;5001395;28;20040;-74
2022/11/09 09:13:31;;;;;;;2.95;2.15;;;12.90;99.90;;;;;;5001954;28;20697;-74
2022/11/09 09:15:57;;;;;;;3.20;2.10;;;12.90;99.90;;;;;;5001276;28;20037;-74
2022/11/09 09:18:22;;;;;;;5.32;2.70;;;12.90;99.90;;;;;;5000081;28;20029;-74
2022/11/09 09:20:48;;;;;;;4.20;3.10;;;13.00;99.90;;;;;;5002444;28;20025;-74
2022/11/09 09:23:15;;;;;;;3.97;2.90;;;13.00;99.90;;;;;;5003980;28;20440;-74
2022/11/09 09:25:41;;;;;;;7.05;2.70;;;13.00;99.90;;;;;;5008631;28;20053;-74
2022/11/09 09:28:07;;;;;;;4.55;2.60;;;13.10;99.90;;;;;;5002859;28;20187;-74
2022/11/09 09:30:32;;;;;;;3.55;2.38;;;13.10;99.90;;;;;;5002930;28;20203;-74
2022/11/09 09:32:59;;;;;;;2.90;2.33;;;13.20;99.90;;;;;;5000642;28;20334;-74
2022/11/09 09:35:26;;;;;;;5.40;2.63;;;13.30;99.90;;;;;;5003353;28;20034;-74
2022/11/09 09:37:53;;;;;;;5.07;3.30;;;13.30;99.90;;;;;;5002512;28;20033;-74
2022/11/09 09:40:25;;;;;;;9.20;3.22;;;13.40;99.90;;;;;;5005067;28;20045;-74
2022/11/09 09:42:53;;;;;;;4.47;2.70;;;13.30;99.90;;;;;;4998115;28;20501;-74
2022/11/09 09:45:31;;;;;;;7.55;2.70;;;13.40;99.90;;;;;;4998205;28;20034;-75
2022/11/09 09:48:03;;;;;;;4.53;2.67;;;13.30;99.90;;;;;;5004218;28;20042;-74
2022/11/09 09:50:36;;;;;;;6.90;3.10;;;13.30;99.90;;;;;;5000980;28;20064;-74
2022/11/09 09:53:17;;;;;;;3.90;3.00;;;13.30;99.90;;;;;;5006403;28;20502;-74
2022/11/09 09:55:49;;;;;;;21.80;4.10;;;13.40;99.90;;;;;;5004312;28;20350;-76
2022/11/09 09:58:24;;;;;;;9.27;4.05;;;13.40;99.90;;;;;;5001476;28;20115;-76
2022/11/09 10:00:56;;;;;;;5.25;3.85;;;13.40;99.90;;;;;;5003030;28;20235;-74
2022/11/09 10:03:22;;;;;;;15.40;9.85;;;13.40;99.90;;;;;;5006151;28;20068;-75
2022/11/09 10:05:57;;;;;;;8.02;5.30;;;13.40;99.90;;;;;;5007439;28;20163;-77
2022/11/09 10:08:30;;;;;;;9.73;6.68;;;;;;;;;;5001434;28;23386;-74
2022/11/09 10:11:21;;;;;;;11.93;5.32;;;13.40;99.90;;;;;;5006390;28;20026;-75
2022/11/09 10:14:14;;;;;;;9.23;5.40;;;13.50;99.90;;;;;;5010294;28;20048;-74
2022/11/09 10:16:42;;;;;;;13.00;6.80;;;13.50;99.90;;;;;;5005098;28;20034;-74
2022/11/09 10:19:27;;;;;;;4.40;4.00;;;13.60;99.90;;;;;;5004918;28;20284;-74
2022/11/09 10:22:36;;;;;;;3.58;3.13;;;13.60;99.90;;;;;;4999666;28;20134;-74
2022/11/09 10:25:10;;;;;;;6.00;3.58;;;13.60;99.90;;;;;;5008490;28;20029;-74
2022/11/09 10:27:42;;;;;;;6.40;3.70;;;13.60;99.90;;;;;;5015053;28;20109;-74
2022/11/09 10:30:17;;;;;;;4.90;3.20;;;13.60;99.90;;;;;;4649429;28;9999857;-74
2022/11/09 10:32:45;;;;;;;5.22;3.25;;;13.60;99.90;;;;;;4998595;28;20025;-74
2022/11/09 10:35:23;;;;;;;4.35;2.90;;;13.70;99.90;;;;;;4996228;28;20029;-74
2022/11/09 10:37:51;;;;;;;4.45;2.75;;;13.70;99.90;;;;;;4995788;28;20045;-74
2022/11/09 10:40:31;;;;;;;4.35;2.97;;;13.70;99.90;;;;;;4998174;28;20037;-74
2022/11/09 10:42:59;;;;;;;5.10;2.60;;;13.70;99.90;;;;;;4988390;28;20646;-74
2022/11/09 10:45:29;;;;;;;4.65;3.00;;;13.80;99.90;;;;;;4993684;28;20026;-74
2022/11/09 10:47:55;;;;;;;3.70;2.95;;;13.80;99.90;;;;;;4989852;28;20021;-74
2022/11/09 10:50:23;;;;;;;6.13;2.97;;;13.80;99.90;;;;;;4989871;28;20096;-74
2022/11/09 10:52:49;;;;;;;3.80;2.70;;;13.80;99.90;;;;;;4995314;28;20045;-74
2022/11/09 10:55:27;;;;;;;4.88;2.80;;;13.80;99.90;;;;;;5000412;28;20020;-74
2022/11/09 10:57:55;;;;;;;2.83;2.38;;;13.80;99.90;;;;;;5000569;28;20018;-74
2022/11/09 11:00:21;;;;;;;4.38;2.05;;;13.90;99.90;;;;;;5025296;28;20040;-74
2022/11/09 11:02:48;;;;;;;3.50;1.92;;;13.80;99.90;;;;;;5012856;28;20029;-74
2022/11/09 11:05:17;;;;;;;3.25;2.05;;;13.90;99.90;;;;;;5016472;28;20041;-74
2022/11/09 11:07:46;;;;;;;4.40;1.90;;;13.90;99.90;;;;;;4995152;28;20531;-74
2022/11/09 11:10:14;;;;;;;3.13;1.80;;;13.90;99.90;;;;;;4995269;28;20516;-74
2022/11/09 11:12:50;;;;;;;4.07;1.75;;;13.90;99.90;;;;;;4994460;28;20644;-74
2022/11/09 11:15:37;;;;;;;2.92;2.00;;;13.90;99.90;;;;;;4991808;28;20026;-74
2022/11/09 11:18:12;;;;;;;4.70;3.40;;;14.00;99.90;;;;;;4993418;28;20033;-74
2022/11/09 11:20:38;;;;;;;5.28;3.72;;;14.00;99.90;;;;;;4989856;28;20053;-74
2022/11/09 11:23:24;;;;;;;5.10;3.00;;;14.00;99.90;;;;;;4995429;28;20405;-74
2022/11/09 11:25:53;;;;;;;6.93;4.40;;;14.00;99.90;;;;;;4996210;28;20405;-74
2022/11/09 11:28:40;;;;;;;6.53;2.40;;;14.10;99.90;;;;;;4996180;28;20021;-74
2022/11/09 11:31:18;;;;;;;5.10;2.20;;;14.10;99.90;;;;;;4988669;28;20516;-74
2022/11/09 11:33:43;;;;;;;5.40;2.63;;;14.10;99.90;;;;;;4997274;28;20044;-74
2022/11/09 11:36:33;;;;;;;4.75;2.92;;;14.10;99.90;;;;;;4991284;28;20665;-74
2022/11/09 11:39:05;;;;;;;3.55;2.72;;;14.10;99.90;;;;;;4996848;28;20042;-74
2022/11/09 11:41:52;;;;;;;5.22;3.20;;;14.20;99.90;;;;;;4994506;28;20168;-74
2022/11/09 11:44:33;;;;;;;2.55;2.10;;;14.40;99.90;;;;;;4990430;28;20014;-74
2022/11/09 11:47:20;;;;;;;3.00;1.95;;;14.60;99.90;;;;;;4996205;28;20199;-70
2022/11/09 11:50:10;;;;;;;3.22;2.05;;;14.80;99.90;;;;;;4992040;28;20080;-70
2022/11/09 11:53:07;;;;;;;2.63;1.95;;;14.90;99.90;;;;;;4997440;28;20025;-70
2022/11/09 11:55:48;;;;;;;2.30;1.58;;;15.00;99.90;;;;;;4998591;28;20033;-70
2022/11/09 11:58:14;;;;;;;3.40;2.03;;;15.00;99.90;;;;;;5000609;28;20038;-71
2022/11/09 12:00:51;;;;;;;4.47;1.90;;;14.90;99.90;;;;;;4999613;28;20034;-70
2022/11/09 12:03:47;;;;;;;2.95;1.70;;;14.80;99.90;;;;;;5005676;28;20026;-70
2022/11/09 12:06:52;;;;;;;3.47;1.90;;;14.80;99.90;;;;;;4995771;28;20755;-70
2022/11/09 12:09:38;;;;;;;3.40;1.98;;;14.70;99.90;;;;;;5022647;28;20758;-71
2022/11/09 12:12:22;;;;;;;2.50;1.63;;;14.80;99.90;;;;;;5002748;28;21534;-70
2022/11/09 12:15:09;;;;;;;3.72;1.70;;;14.90;99.90;;;;;;4997754;28;20238;-71
2022/11/09 12:18:04;;;;;;;5.35;1.83;;;15.00;99.90;;;;;;4995933;28;22366;-71
2022/11/09 12:20:45;;;;;;;4.38;1.40;;;15.20;99.90;;;;;;4996318;28;20109;-71
2022/11/09 12:23:16;;;;;;;3.15;1.38;;;15.30;99.90;;;;;;4993721;28;20151;-70
2022/11/09 12:26:01;;;;;;;3.03;1.40;;;15.40;99.90;;;;;;4997537;28;22989;-71
2022/11/09 12:28:48;;;;;;;3.13;1.50;;;15.50;99.90;;;;;;5004026;28;20080;-70
2022/11/09 12:31:42;;;;;;;3.67;1.60;;;15.60;99.90;;;;;;4998709;28;20304;-71
2022/11/09 12:34:55;;;;;;;4.28;1.45;;;15.60;99.90;;;;;;5002082;28;20053;-70
2022/11/09 12:37:32;;;;;;;1.55;1.30;;;15.60;99.90;;;;;;5000734;28;20599;-71
2022/11/09 12:40:23;;;;;;;3.33;1.27;;;15.70;99.90;;;;;;5001587;28;20045;-71
2022/11/09 12:43:09;;;;;;;3.47;1.30;;;15.70;99.90;;;;;;5000530;28;20025;-70
2022/11/09 12:45:39;;;;;;;3.92;1.33;;;15.80;99.90;;;;;;4997408;28;20068;-70
2022/11/09 12:48:28;;;;;;;2.47;1.27;;;15.90;99.90;;;;;;5007617;28;20064;-70
2022/11/09 12:50:54;;;;;;;4.70;1.00;;;15.90;99.90;;;;;;5004975;28;20078;-70
2022/11/09 12:53:29;;;;;;;3.88;1.30;;;15.90;99.90;;;;;;5004184;28;20030;-70
2022/11/09 12:56:18;;;;;;;3.38;1.20;;;15.80;99.90;;;;;;5002472;28;20038;-68
2022/11/09 12:58:44;;;;;;;2.25;1.20;;;;;;;;;;4999796;28;20025;-71
2022/11/09 13:01:13;;;;;;;3.53;1.45;;;15.50;99.90;;;;;;5000228;28;20044;-71